createdAt,value
2023-01-02T00:01:59.038Z,95200.53
2023-01-02T00:04:25.647Z,95190.31
2023-01-02T00:06:52.286Z,95188.06
2023-01-02T00:09:20.060Z,95188.91
2023-01-02T00:11:46.755Z,95174.47
2023-01-02T00:14:13.460Z,95172.84
2023-01-02T00:16:40.132Z,95177.66
2023-01-02T00:19:08.726Z,95164.72
2023-01-02T00:21:36.603Z,95167.47
2023-01-02T00:24:03.436Z,95173.00
2023-01-02T00:26:30.399Z,95169.13
2023-01-02T00:28:57.095Z,95157.72
2023-01-02T00:31:23.891Z,95160.22
2023-01-02T00:33:50.597Z,95155.81
2023-01-02T00:36:17.296Z,95154.50
2023-01-02T00:38:44.070Z,95147.09
2023-01-02T00:41:10.753Z,95152.72
2023-01-02T00:43:37.402Z,95154.84
2023-01-02T00:46:11.871Z,95155.88
2023-01-02T00:48:39.410Z,95160.31
2023-01-02T00:51:06.267Z,95155.97
2023-01-02T00:53:34.965Z,95159.59
2023-01-02T00:56:01.611Z,95155.63
2023-01-02T00:58:28.264Z,95157.28
2023-01-02T01:00:54.931Z,95154.16
2023-01-02T01:03:21.660Z,95149.06
2023-01-02T01:05:48.360Z,95137.22
2023-01-02T01:08:15.041Z,95137.91
2023-01-02T01:10:41.822Z,95130.41
2023-01-02T01:13:08.600Z,95124.97
2023-01-02T01:15:35.955Z,95122.97
2023-01-02T01:18:02.894Z,95120.56
2023-01-02T01:20:29.542Z,95118.91
2023-01-02T01:22:56.303Z,95097.22
2023-01-02T01:25:23.093Z,95094.38
2023-01-02T01:27:52.365Z,95083.31
2023-01-02T01:30:19.933Z,95092.38
2023-01-02T01:32:46.621Z,95097.53
2023-01-02T01:35:13.224Z,95092.38
2023-01-02T01:37:40.223Z,95100.66
2023-01-02T01:40:07.328Z,95107.75
2023-01-02T01:42:34.467Z,95111.81
2023-01-02T01:45:01.256Z,95112.56
2023-01-02T01:47:39.720Z,95116.50
2023-01-02T01:50:13.199Z,95121.66
2023-01-02T01:52:42.084Z,95119.66
2023-01-02T01:55:17.808Z,95120.09
2023-01-02T01:57:49.289Z,95116.56
2023-01-02T02:00:16.216Z,95122.44
2023-01-02T02:02:46.549Z,95120.03
2023-01-02T02:05:15.797Z,95124.44
2023-01-02T02:07:46.333Z,95121.59
2023-01-02T02:10:13.070Z,95118.06
2023-01-02T02:12:39.833Z,95117.69
2023-01-02T02:15:07.667Z,95121.66
2023-01-02T02:17:43.883Z,95122.44
2023-01-02T02:20:13.306Z,95142.06
2023-01-02T02:22:45.964Z,95146.03
2023-01-02T02:25:31.879Z,95136.19
2023-01-02T02:28:04.654Z,95130.66
2023-01-02T02:31:00.673Z,95138.53
2023-01-02T02:33:50.029Z,95131.44
2023-01-02T02:36:19.828Z,95127.13
2023-01-02T02:38:48.143Z,95127.56
2023-01-02T02:41:23.230Z,95125.91
2023-01-02T02:44:08.559Z,95129.44
2023-01-02T02:46:38.008Z,95126.66
2023-01-02T02:49:14.041Z,95111.63
2023-01-02T02:51:44.675Z,95109.31
2023-01-02T02:54:34.575Z,95104.53
2023-01-02T02:57:02.172Z,95096.94
2023-01-02T02:59:29.580Z,95096.25
2023-01-02T03:01:56.341Z,95099.00
2023-01-02T03:04:23.408Z,95108.09
2023-01-02T03:06:54.283Z,95103.78
2023-01-02T03:09:43.730Z,95107.75
2023-01-02T03:12:10.393Z,95104.53
2023-01-02T03:14:37.060Z,95103.78
2023-01-02T03:17:11.734Z,95102.97
2023-01-02T03:19:42.457Z,95102.97
2023-01-02T03:22:13.805Z,95106.19
2023-01-02T03:24:42.400Z,95103.44
2023-01-02T03:27:11.010Z,95104.22
2023-01-02T03:29:39.680Z,95110.16
2023-01-02T03:32:09.662Z,95109.75
2023-01-02T03:34:38.314Z,95115.28
2023-01-02T03:37:08.505Z,95112.53
2023-01-02T03:39:39.467Z,95116.06
2023-01-02T03:42:10.047Z,95118.06
2023-01-02T03:44:58.156Z,95130.66
2023-01-02T03:47:29.851Z,95125.91
2023-01-02T03:49:58.740Z,95130.66
2023-01-02T03:52:26.191Z,95132.28
2023-01-02T03:54:53.707Z,95135.41
2023-01-02T03:57:33.044Z,95120.81
2023-01-02T04:00:06.545Z,95118.09
2023-01-02T04:02:45.365Z,95112.16
2023-01-02T04:05:15.233Z,95108.59
2023-01-02T04:07:50.649Z,95113.72
2023-01-02T04:10:18.269Z,95114.50
2023-01-02T04:12:47.351Z,95107.03
2023-01-02T04:15:15.159Z,95109.75
2023-01-02T04:17:53.525Z,95117.69
2023-01-02T04:20:25.943Z,95122.03
2023-01-02T04:23:25.187Z,95116.13
2023-01-02T04:26:12.595Z,95109.03
2023-01-02T04:28:39.262Z,95109.03
2023-01-02T04:31:09.649Z,95111.03
2023-01-02T04:33:47.952Z,95111.81
2023-01-02T04:36:15.593Z,95119.66
2023-01-02T04:38:43.364Z,95122.03
2023-01-02T04:41:10.390Z,95115.69
2023-01-02T04:43:37.102Z,95126.34
2023-01-02T04:46:03.781Z,95126.66
2023-01-02T04:48:30.419Z,95137.41
2023-01-02T04:50:57.061Z,95139.72
2023-01-02T04:53:23.885Z,95144.81
2023-01-02T04:55:55.387Z,95142.50
2023-01-02T04:58:22.027Z,95138.53
2023-01-02T05:00:48.670Z,95134.19
2023-01-02T05:03:15.419Z,95135.84
2023-01-02T05:05:42.151Z,95141.38
2023-01-02T05:08:15.617Z,95134.66
2023-01-02T05:10:42.907Z,95132.66
2023-01-02T05:13:09.582Z,95143.25
2023-01-02T05:15:36.299Z,95133.00
2023-01-02T05:18:02.988Z,95140.84
2023-01-02T05:20:29.669Z,95154.34
2023-01-02T05:23:14.855Z,95150.44
2023-01-02T05:25:41.530Z,95153.22
2023-01-02T05:28:08.556Z,95156.34
2023-01-02T05:30:37.708Z,95156.78
2023-01-02T05:33:04.343Z,95160.75
2023-01-02T05:35:33.361Z,95169.38
2023-01-02T05:38:00.649Z,95168.16
2023-01-02T05:40:27.364Z,95180.88
2023-01-02T05:42:54.007Z,95187.59
2023-01-02T05:45:20.675Z,95187.97
2023-01-02T05:47:47.325Z,95195.06
2023-01-02T05:50:14.045Z,95196.69
2023-01-02T05:52:45.418Z,95197.81
2023-01-02T05:55:12.592Z,95205.69
2023-01-02T05:57:41.757Z,95199.78
2023-01-02T06:00:08.692Z,95205.31
2023-01-02T06:02:39.636Z,95194.34
2023-01-02T06:05:07.315Z,95202.22
2023-01-02T06:07:33.929Z,95197.47
2023-01-02T06:10:00.956Z,95199.78
2023-01-02T06:12:27.592Z,95194.25
2023-01-02T06:14:54.403Z,95205.31
2023-01-02T06:17:21.945Z,95202.16
2023-01-02T06:19:53.665Z,95200.16
2023-01-02T06:22:20.802Z,95203.78
2023-01-02T06:24:47.444Z,95204.13
2023-01-02T06:27:14.084Z,95211.22
2023-01-02T06:29:40.735Z,95212.09
2023-01-02T06:32:07.487Z,95230.66
2023-01-02T06:34:34.160Z,95219.16
2023-01-02T06:37:04.562Z,95235.75
2023-01-02T06:39:36.020Z,95237.75
2023-01-02T06:42:02.645Z,95240.88
2023-01-02T06:44:29.275Z,95254.69
2023-01-02T06:46:55.946Z,95247.59
2023-01-02T06:49:22.578Z,95252.34
2023-01-02T06:51:49.224Z,95255.53
2023-01-02T06:54:15.925Z,95259.97
2023-01-02T06:56:42.570Z,95261.16
2023-01-02T06:59:09.817Z,95277.75
2023-01-02T07:01:36.505Z,95271.78
2023-01-02T07:04:03.225Z,95286.41
2023-01-02T07:06:29.866Z,95288.38
2023-01-02T07:08:56.609Z,95290.75
2023-01-02T07:11:24.836Z,95293.50
2023-01-02T07:13:52.899Z,95298.69
2023-01-02T07:16:20.827Z,95299.13
2023-01-02T07:18:47.767Z,95308.53
2023-01-02T07:21:15.820Z,95308.03
2023-01-02T07:23:42.798Z,95309.59
2023-01-02T07:26:09.868Z,95309.94
2023-01-02T07:28:37.370Z,95315.47
2023-01-02T07:31:05.573Z,95313.91
2023-01-02T07:33:32.954Z,95327.75
2023-01-02T07:36:00.865Z,95323.41
2023-01-02T07:38:27.879Z,95336.03
2023-01-02T07:40:54.883Z,95331.28
2023-01-02T07:43:21.898Z,95328.88
2023-01-02T07:45:50.746Z,95335.88
2023-01-02T07:48:18.132Z,95344.19
2023-01-02T07:50:44.982Z,95343.13
2023-01-02T07:53:11.725Z,95346.59
2023-01-02T07:55:38.376Z,95352.94
2023-01-02T07:58:05.042Z,95352.56
2023-01-02T08:00:31.689Z,95357.34
2023-01-02T08:02:58.309Z,95363.19
2023-01-02T08:05:24.947Z,95356.03
2023-01-02T08:07:52.203Z,95370.28
2023-01-02T08:10:18.841Z,95374.19
2023-01-02T08:12:45.579Z,95372.00
2023-01-02T08:15:12.289Z,95372.84
2023-01-02T08:17:39.648Z,95373.84
2023-01-02T08:20:08.461Z,95374.41
2023-01-02T08:22:35.376Z,95370.81
2023-01-02T08:25:02.334Z,95367.59
2023-01-02T08:27:29.371Z,95366.84
2023-01-02T08:29:56.228Z,95372.38
2023-01-02T08:32:23.055Z,95374.63
2023-01-02T08:34:49.828Z,95373.41
2023-01-02T08:37:16.569Z,95376.91
2023-01-02T08:39:43.465Z,95381.84
2023-01-02T08:42:10.264Z,95380.59
2023-01-02T08:44:38.279Z,95393.38
2023-01-02T08:47:06.002Z,95396.56
2023-01-02T08:49:32.809Z,95398.91
2023-01-02T08:51:59.580Z,95402.09
2023-01-02T08:54:26.730Z,95404.09
2023-01-02T08:56:53.587Z,95407.28
2023-01-02T08:59:24.102Z,95416.13
2023-01-02T09:01:52.052Z,95422.66
2023-01-02T09:04:19.856Z,95415.50
2023-01-02T09:06:47.303Z,95414.66
2023-01-02T09:09:16.133Z,95409.91
2023-01-02T09:11:52.922Z,95406.69
2023-01-02T09:14:21.607Z,95410.25
2023-01-02T09:16:50.778Z,95413.03
2023-01-02T09:19:18.065Z,95415.44
2023-01-02T09:21:45.275Z,95417.78
2023-01-02T09:24:13.157Z,95420.03
2023-01-02T09:26:41.859Z,95418.50
2023-01-02T09:29:12.292Z,95425.22
2023-01-02T09:31:40.114Z,95418.50
2023-01-02T09:34:07.331Z,95415.28
2023-01-02T09:36:34.141Z,95419.25
2023-01-02T09:39:02.128Z,95423.94
2023-01-02T09:41:34.257Z,95421.59
2023-01-02T09:44:06.987Z,95431.81
2023-01-02T09:46:42.107Z,95427.50
2023-01-02T09:49:15.836Z,95428.06
2023-01-02T09:51:44.029Z,95437.44
2023-01-02T09:56:47.881Z,95442.13
2023-01-02T09:59:26.021Z,95440.13
2023-01-02T10:02:21.208Z,95448.88
2023-01-02T10:05:06.974Z,95448.06
2023-01-02T10:07:39.997Z,95447.66
2023-01-02T10:10:39.883Z,95458.28
2023-01-02T10:13:32.625Z,95451.19
2023-01-02T10:16:20.073Z,95456.38
2023-01-02T10:18:53.696Z,95466.66
2023-01-02T10:21:33.932Z,95459.56
2023-01-02T10:24:07.296Z,95468.63
2023-01-02T10:26:41.601Z,95455.97
2023-01-02T10:29:26.102Z,95462.63
2023-01-02T10:31:59.471Z,95461.81
2023-01-02T10:34:42.566Z,95460.97
2023-01-02T10:37:14.754Z,95449.91
2023-01-02T10:39:45.323Z,95453.03
2023-01-02T10:42:15.059Z,95458.09
2023-01-02T10:44:44.552Z,95458.91
2023-01-02T10:47:35.849Z,95460.78
2023-01-02T10:50:07.240Z,95463.75
2023-01-02T10:52:41.760Z,95451.75
2023-01-02T10:55:08.735Z,95461.56
2023-01-02T10:57:51.149Z,95454.78
2023-01-02T11:00:22.557Z,95455.56
2023-01-02T11:02:57.051Z,95452.72
2023-01-02T11:05:31.199Z,95459.84
2023-01-02T11:07:59.010Z,95456.78
2023-01-02T11:10:33.868Z,95456.13
2023-01-02T11:13:10.356Z,95452.13
2023-01-02T11:15:48.157Z,95440.22
2023-01-02T11:18:22.865Z,95446.19
2023-01-02T11:20:53.690Z,95440.59
2023-01-02T11:23:25.146Z,95438.56
2023-01-02T11:25:54.241Z,95433.41
2023-01-02T11:28:28.788Z,95434.53
2023-01-02T11:31:05.235Z,95432.13
2023-01-02T11:33:34.895Z,95430.91
2023-01-02T11:36:03.613Z,95423.31
2023-01-02T11:38:49.991Z,95431.31
2023-01-02T11:41:49.926Z,95420.69
2023-01-02T11:44:27.038Z,95426.16
2023-01-02T11:46:55.254Z,95411.03
2023-01-02T11:49:38.444Z,95416.13
2023-01-02T11:52:06.850Z,95410.25
2023-01-02T11:55:00.010Z,95404.78
2023-01-02T11:57:56.567Z,95401.75
2023-01-02T12:00:30.252Z,95403.16
2023-01-02T12:03:05.017Z,95405.28
2023-01-02T12:05:56.680Z,95401.16
2023-01-02T12:08:51.676Z,95408.66
2023-01-02T12:11:34.181Z,95399.06
2023-01-02T12:14:19.361Z,95397.00
2023-01-02T12:16:55.410Z,95395.88
2023-01-02T12:19:31.367Z,95393.03
2023-01-02T12:22:04.316Z,95382.59
2023-01-02T12:24:37.131Z,95378.50
2023-01-02T12:27:22.331Z,95376.09
2023-01-02T12:30:09.327Z,95365.84
2023-01-02T12:33:02.805Z,95374.91
2023-01-02T12:35:47.537Z,95368.59
2023-01-02T12:38:45.307Z,95371.38
2023-01-02T12:41:30.026Z,95367.41
2023-01-02T12:44:33.975Z,95370.22
2023-01-02T12:47:13.118Z,95374.06
2023-01-02T12:49:51.737Z,95366.06
2023-01-02T12:52:21.278Z,95372.41
2023-01-02T12:55:00.230Z,95367.31
2023-01-02T12:57:42.861Z,95368.16
2023-01-02T13:00:21.655Z,95368.84
2023-01-02T13:03:00.719Z,95368.00
2023-01-02T13:05:38.831Z,95370.00
2023-01-02T13:08:13.864Z,95369.19
2023-01-02T13:10:41.218Z,95365.66
2023-01-02T13:13:11.852Z,95365.66
2023-01-02T13:15:42.824Z,95368.09
2023-01-02T13:18:18.692Z,95364.69
2023-01-02T13:21:00.692Z,95368.81
2023-01-02T13:23:37.428Z,95368.19
2023-01-02T13:26:10.922Z,95360.44
2023-01-02T13:29:09.558Z,95352.13
2023-01-02T13:31:48.063Z,95357.03
2023-01-02T13:34:22.302Z,95355.03
2023-01-02T13:36:57.707Z,95353.16
2023-01-02T13:39:29.970Z,95349.50
2023-01-02T13:42:19.150Z,95347.78
2023-01-02T13:44:53.746Z,95351.50
2023-01-02T13:47:39.153Z,95350.50
2023-01-02T13:50:12.187Z,95353.56
2023-01-02T13:52:40.922Z,95350.72
2023-01-02T13:55:22.352Z,95348.75
2023-01-02T13:58:12.313Z,95345.97
2023-01-02T14:00:55.282Z,95349.94
2023-01-02T14:03:25.518Z,95345.97
2023-01-02T14:05:57.827Z,95355.84
2023-01-02T14:08:29.279Z,95353.06
2023-01-02T14:11:18.064Z,95349.09
2023-01-02T14:13:51.897Z,95351.50
2023-01-02T14:16:47.896Z,95349.94
2023-01-02T14:19:20.451Z,95358.25
2023-01-02T14:22:00.740Z,95358.63
2023-01-02T14:24:30.692Z,95356.63
2023-01-02T14:27:15.483Z,95354.63
2023-01-02T14:29:53.832Z,95352.63
2023-01-02T14:32:26.379Z,95358.97
2023-01-02T14:34:56.144Z,95360.50
2023-01-02T14:37:33.639Z,95357.34
2023-01-02T14:40:16.460Z,95361.66
2023-01-02T14:43:04.531Z,95366.75
2023-01-02T14:45:31.662Z,95359.22
2023-01-02T14:48:06.729Z,95364.34
2023-01-02T14:50:36.322Z,95361.59
2023-01-02T14:53:18.109Z,95364.69
2023-01-02T14:55:46.539Z,95364.69
2023-01-02T14:58:25.562Z,95375.75
2023-01-02T15:01:00.721Z,95370.22
2023-01-02T15:03:54.212Z,95367.44
2023-01-02T15:06:42.843Z,95371.78
2023-01-02T15:09:23.705Z,95378.09
2023-01-02T15:12:14.010Z,95369.81
2023-01-02T15:14:42.422Z,95373.69
2023-01-02T15:17:21.890Z,95376.09
2023-01-02T15:19:49.454Z,95382.34
2023-01-02T15:22:19.419Z,95385.91
2023-01-02T15:24:53.442Z,95387.47
2023-01-02T15:27:29.721Z,95387.03
2023-01-02T15:29:59.634Z,95398.09
2023-01-02T15:32:28.997Z,95391.34
2023-01-02T15:35:30.048Z,95390.94
2023-01-02T15:37:57.001Z,95392.22
2023-01-02T15:40:23.742Z,95396.88
2023-01-02T15:43:16.189Z,95397.25
2023-01-02T15:45:51.545Z,95396.81
2023-01-02T15:48:21.994Z,95396.72
2023-01-02T15:50:52.160Z,95400.66
2023-01-02T15:53:30.962Z,95400.22
2023-01-02T15:55:58.703Z,95397.00
2023-01-02T15:58:29.665Z,95396.66
2023-01-02T16:01:16.993Z,95393.03
2023-01-02T16:04:00.570Z,95398.56
2023-01-02T16:06:41.549Z,95391.47
2023-01-02T16:09:19.410Z,95390.25
2023-01-02T16:11:52.211Z,95383.97
2023-01-02T16:14:37.695Z,95388.69
2023-01-02T16:17:20.291Z,95392.25
2023-01-02T16:19:53.290Z,95396.25
2023-01-02T16:22:42.550Z,95387.50
2023-01-02T16:25:29.025Z,95389.50
2023-01-02T16:27:58.834Z,95390.25
2023-01-02T16:30:25.623Z,95391.63
2023-01-02T16:32:53.108Z,95389.56
2023-01-02T16:35:25.983Z,95389.56
2023-01-02T16:37:58.474Z,95394.75
2023-01-02T16:40:59.751Z,95386.09
2023-01-02T16:43:12.470Z,95390.88
2023-01-02T16:45:39.945Z,95383.75
2023-01-02T16:48:12.520Z,95395.19
2023-01-02T16:50:42.948Z,95395.13
2023-01-02T16:53:16.814Z,95400.97
2023-01-02T16:55:43.639Z,95409.28
2023-01-02T16:58:10.561Z,95401.78
2023-01-02T17:00:43.211Z,95419.50
2023-01-02T17:03:20.417Z,95413.97
2023-01-02T17:06:01.936Z,95414.81
2023-01-02T17:08:31.146Z,95417.94
2023-01-02T17:10:59.702Z,95422.28
2023-01-02T17:13:27.075Z,95427.38
2023-01-02T17:15:54.221Z,95425.81
2023-01-02T17:18:21.064Z,95427.81
2023-01-02T17:20:47.984Z,95427.38
2023-01-02T17:23:15.172Z,95420.34
2023-01-02T17:25:46.386Z,95426.25
2023-01-02T17:28:13.837Z,95436.13
2023-01-02T17:30:45.150Z,95437.69
2023-01-02T17:33:12.856Z,95443.22
2023-01-02T17:35:40.430Z,95431.34
2023-01-02T17:38:07.539Z,95434.13
2023-01-02T17:40:34.613Z,95442.44
2023-01-02T17:43:01.763Z,95444.88
2023-01-02T17:45:28.992Z,95444.50
2023-01-02T17:48:05.446Z,95448.84
2023-01-02T17:50:37.335Z,95447.72
2023-01-02T17:53:07.492Z,95443.72
2023-01-02T17:55:34.421Z,95454.38
2023-01-02T17:58:01.398Z,95453.94
2023-01-02T18:00:28.674Z,95460.69
2023-01-02T18:02:55.743Z,95454.75
2023-01-02T18:05:23.030Z,95453.94
2023-01-02T18:07:50.290Z,95457.91
2023-01-02T18:10:20.360Z,95454.28
2023-01-02T18:12:49.584Z,95465.38
2023-01-02T18:15:19.760Z,95458.28
2023-01-02T18:17:46.801Z,95466.13
2023-01-02T18:20:19.280Z,95472.47
2023-01-02T18:22:50.181Z,95472.47
2023-01-02T18:25:28.234Z,95482.00
2023-01-02T18:28:02.734Z,95487.16
2023-01-02T18:30:29.908Z,95489.16
2023-01-02T18:33:18.551Z,95491.94
2023-01-02T18:36:01.425Z,95491.94
2023-01-02T18:38:30.969Z,95496.25
2023-01-02T18:40:57.850Z,95497.81
2023-01-02T18:43:35.939Z,95494.25
2023-01-02T18:46:17.983Z,95489.50
2023-01-02T18:48:46.066Z,95489.50
2023-01-02T18:51:19.094Z,95495.03
2023-01-02T18:53:49.759Z,95496.25
2023-01-02T18:56:18.356Z,95497.41
2023-01-02T18:58:51.669Z,95504.91
2023-01-02T19:01:23.914Z,95508.88
2023-01-02T19:03:57.079Z,95511.59
2023-01-02T19:06:28.158Z,95510.38
2023-01-02T19:09:01.361Z,95508.75
2023-01-02T19:11:53.088Z,95513.06
2023-01-02T19:14:24.572Z,95512.28
2023-01-02T19:17:23.687Z,95510.72
2023-01-02T19:19:51.473Z,95521.03
2023-01-02T19:22:31.397Z,95511.16
2023-01-02T19:25:05.591Z,95506.38
2023-01-02T19:27:38.285Z,95531.31
2023-01-02T19:30:29.421Z,95527.34
2023-01-02T19:32:56.572Z,95531.66
2023-01-02T19:35:26.079Z,95538.06
2023-01-02T19:37:52.896Z,95541.69
2023-01-02T19:40:22.093Z,95544.47
2023-01-02T19:42:51.123Z,95544.75
2023-01-02T19:45:20.833Z,95547.09
2023-01-02T19:47:49.435Z,95543.88
2023-01-02T19:50:22.244Z,95543.47
2023-01-02T19:52:49.658Z,95541.19
2023-01-02T19:55:18.052Z,95540.06
2023-01-02T19:57:45.374Z,95540.41
2023-01-02T20:00:14.186Z,95530.84
2023-01-02T20:02:52.239Z,95527.25
2023-01-02T20:05:22.631Z,95530.41
2023-01-02T20:07:52.792Z,95523.28
2023-01-02T20:10:20.238Z,95525.63
2023-01-02T20:12:47.265Z,95531.59
2023-01-02T20:15:17.485Z,95528.84
2023-01-02T20:17:45.615Z,95534.72
2023-01-02T20:20:18.474Z,95538.25
2023-01-02T20:22:46.220Z,95547.38
2023-01-02T20:25:15.923Z,95546.16
2023-01-02T20:27:42.822Z,95551.34
2023-01-02T20:30:10.897Z,95552.13
2023-01-02T20:32:37.753Z,95555.69
2023-01-02T20:35:05.531Z,95552.13
2023-01-02T20:37:32.525Z,95560.41
2023-01-02T20:39:59.290Z,95561.22
2023-01-02T20:42:26.066Z,95560.78
2023-01-02T20:44:52.891Z,95570.28
2023-01-02T20:47:20.048Z,95564.75
2023-01-02T20:49:46.962Z,95565.56
2023-01-02T20:52:14.311Z,95565.56
2023-01-02T20:54:41.544Z,95570.28
2023-01-02T20:57:08.392Z,95567.53
2023-01-02T20:59:35.258Z,95558.44
2023-01-02T21:02:02.133Z,95564.00
2023-01-02T21:04:34.489Z,95556.44
2023-01-02T21:07:04.384Z,95560.00
2023-01-02T21:09:31.502Z,95562.78
2023-01-02T21:11:58.352Z,95557.25
2023-01-02T21:14:25.376Z,95560.78
2023-01-02T21:16:52.259Z,95560.34
2023-01-02T21:19:19.103Z,95557.94
2023-01-02T21:21:46.206Z,95547.28
2023-01-02T21:24:13.339Z,95562.28
2023-01-02T21:26:40.413Z,95569.38
2023-01-02T21:29:07.302Z,95569.38
2023-01-02T21:31:34.178Z,95563.84
2023-01-02T21:34:01.095Z,95570.94
2023-01-02T21:36:28.344Z,95568.59
2023-01-02T21:38:55.639Z,95569.38
2023-01-02T21:41:41.006Z,95574.13
2023-01-02T21:44:07.845Z,95572.16
2023-01-02T21:46:34.642Z,95580.91
2023-01-02T21:49:01.534Z,95584.00
2023-01-02T21:51:32.773Z,95586.75
2023-01-02T21:54:00.466Z,95586.44
2023-01-02T21:56:27.740Z,95588.75
2023-01-02T21:58:55.155Z,95592.31
2023-01-02T22:01:22.340Z,95591.53
2023-01-02T22:03:49.265Z,95597.06
2023-01-02T22:06:18.421Z,95595.06
2023-01-02T22:08:45.349Z,95592.31
2023-01-02T22:11:30.512Z,95592.31
2023-01-02T22:13:57.489Z,95597.84
2023-01-02T22:16:24.730Z,95594.66
2023-01-02T22:18:51.549Z,95602.97
2023-01-02T22:21:18.397Z,95597.84
2023-01-02T22:23:45.194Z,95604.19
2023-01-02T22:26:12.069Z,95605.75
2023-01-02T22:28:42.867Z,95598.66
2023-01-02T22:31:11.166Z,95614.06
2023-01-02T22:33:38.359Z,95608.94
2023-01-02T22:36:05.417Z,95605.38
2023-01-02T22:38:32.235Z,95604.19
2023-01-02T22:40:59.398Z,95605.03
2023-01-02T22:43:28.811Z,95596.78
2023-01-02T22:45:56.757Z,95610.94
2023-01-02T22:48:26.954Z,95615.25
2023-01-02T22:50:56.985Z,95614.47
2023-01-02T22:53:26.378Z,95613.25
2023-01-02T22:55:53.684Z,95612.06
2023-01-02T22:58:21.821Z,95617.59
2023-01-02T23:00:59.521Z,95608.94
2023-01-02T23:03:34.269Z,95608.94
2023-01-02T23:06:01.051Z,95613.25
2023-01-02T23:08:28.011Z,95623.56
2023-01-02T23:10:54.896Z,95620.00
2023-01-02T23:13:21.694Z,95619.22
2023-01-02T23:16:07.288Z,95618.03
2023-01-02T23:18:56.603Z,95622.78
2023-01-02T23:21:26.345Z,95626.34
2023-01-02T23:23:53.356Z,95623.97
2023-01-02T23:26:22.333Z,95624.78
2023-01-02T23:29:06.601Z,95632.28
2023-01-02T23:31:36.021Z,95630.75
2023-01-02T23:34:02.892Z,95635.84
2023-01-02T23:36:29.942Z,95639.06
2023-01-02T23:38:56.786Z,95637.06
2023-01-02T23:41:23.638Z,95641.81
2023-01-02T23:43:51.583Z,95647.38
2023-01-02T23:46:18.674Z,95647.78
2023-01-02T23:48:45.580Z,95653.31
2023-01-02T23:51:12.355Z,95648.13
2023-01-02T23:53:39.511Z,95646.56
2023-01-02T23:56:26.246Z,95641.03
2023-01-02T23:58:54.732Z,95638.25
